createdAt,value
2023-04-23T00:01:39.510Z,47.79
2023-04-23T00:04:15.114Z,47.77
2023-04-23T00:06:50.494Z,47.80
2023-04-23T00:09:21.721Z,48.18
2023-04-23T00:11:55.349Z,47.95
2023-04-23T00:14:29.054Z,48.27
2023-04-23T00:17:01.709Z,48.28
2023-04-23T00:19:32.049Z,47.94
2023-04-23T00:22:03.317Z,48.26
2023-04-23T00:24:39.509Z,48.05
2023-04-23T00:27:10.355Z,47.78
2023-04-23T00:29:43.604Z,47.39
2023-04-23T00:32:14.789Z,47.14
2023-04-23T00:34:49.015Z,47.08
2023-04-23T00:37:19.260Z,47.03
2023-04-23T00:39:50.874Z,47.22
2023-04-23T00:42:21.760Z,47.07
2023-04-23T00:44:54.738Z,47.33
2023-04-23T00:47:25.662Z,47.39
2023-04-23T00:49:59.112Z,47.73
2023-04-23T00:52:29.559Z,47.79
2023-04-23T00:54:59.815Z,47.44
2023-04-23T00:57:33.817Z,47.35
2023-04-23T01:00:08.577Z,47.23
2023-04-23T01:02:40.748Z,47.22
2023-04-23T01:05:13.523Z,47.21
2023-04-23T01:07:45.017Z,47.50
2023-04-23T01:10:16.174Z,47.26
2023-04-23T01:12:46.426Z,47.75
2023-04-23T01:15:19.368Z,47.44
2023-04-23T01:17:49.691Z,47.49
2023-04-23T01:20:20.419Z,47.85
2023-04-23T01:22:53.511Z,48.01
2023-04-23T01:25:26.357Z,47.82
2023-04-23T01:27:57.391Z,47.87
2023-04-23T01:30:29.446Z,47.81
2023-04-23T01:33:01.432Z,48.20
2023-04-23T01:35:32.942Z,48.28
2023-04-23T01:38:07.168Z,47.93
2023-04-23T01:40:37.813Z,47.66
2023-04-23T01:43:10.105Z,47.68
2023-04-23T01:45:40.778Z,47.83
2023-04-23T01:48:13.359Z,47.20
2023-04-23T01:50:43.888Z,47.84
2023-04-23T01:53:16.722Z,48.71
2023-04-23T01:55:50.262Z,48.92
2023-04-23T01:58:20.699Z,49.53
2023-04-23T02:00:54.169Z,49.25
2023-04-23T02:03:26.385Z,49.16
2023-04-23T02:05:57.437Z,49.29
2023-04-23T02:08:36.260Z,49.74
2023-04-23T02:11:07.095Z,49.51
2023-04-23T02:13:38.192Z,49.61
2023-04-23T02:16:13.338Z,49.78
2023-04-23T02:18:43.636Z,50.35
2023-04-23T02:21:15.397Z,50.68
2023-04-23T02:23:51.174Z,50.99
2023-04-23T02:26:23.037Z,51.09
2023-04-23T02:28:55.977Z,51.74
2023-04-23T02:31:26.766Z,51.63
2023-04-23T02:34:00.497Z,52.02
2023-04-23T02:36:35.187Z,52.88
2023-04-23T02:39:08.466Z,53.28
2023-04-23T02:41:46.066Z,53.65
2023-04-23T02:44:18.674Z,53.94
2023-04-23T02:46:49.172Z,54.25
2023-04-23T02:49:24.790Z,54.21
2023-04-23T02:51:55.126Z,54.60
2023-04-23T02:54:27.991Z,54.60
2023-04-23T02:56:58.372Z,54.98
2023-04-23T02:59:28.980Z,55.12
2023-04-23T03:01:59.467Z,55.18
2023-04-23T03:04:32.347Z,55.33
2023-04-23T03:07:02.646Z,55.47
2023-04-23T03:09:35.599Z,54.90
2023-04-23T03:12:05.877Z,54.60
2023-04-23T03:14:36.123Z,54.29
2023-04-23T03:17:06.647Z,54.65
2023-04-23T03:19:36.908Z,54.74
2023-04-23T03:22:10.592Z,54.93
2023-04-23T03:24:43.717Z,55.25
2023-04-23T03:27:14.451Z,55.41
2023-04-23T03:29:44.845Z,55.06
2023-04-23T03:32:15.436Z,55.17
2023-04-23T03:34:45.655Z,55.24
2023-04-23T03:37:16.656Z,55.09
2023-04-23T03:39:50.033Z,55.35
2023-04-23T03:42:20.434Z,54.37
2023-04-23T03:44:52.691Z,54.28
2023-04-23T03:47:23.019Z,54.07
2023-04-23T03:49:57.060Z,54.22
2023-04-23T03:52:27.466Z,54.57
2023-04-23T03:55:00.346Z,54.93
2023-04-23T03:57:30.713Z,54.55
2023-04-23T04:00:01.065Z,54.47
2023-04-23T04:02:31.540Z,54.16
2023-04-23T04:05:02.317Z,54.15
2023-04-23T04:07:37.360Z,54.34
2023-04-23T04:10:11.115Z,54.56
2023-04-23T04:12:42.316Z,54.24
2023-04-23T04:15:13.788Z,54.01
2023-04-23T04:17:46.149Z,54.06
2023-04-23T04:20:17.251Z,53.52
2023-04-23T04:22:50.213Z,53.19
2023-04-23T04:25:24.389Z,52.41
2023-04-23T04:27:54.952Z,52.11
2023-04-23T04:30:29.492Z,51.82
2023-04-23T04:33:00.138Z,52.11
2023-04-23T04:35:30.544Z,51.79
2023-04-23T04:38:01.906Z,51.31
2023-04-23T04:40:34.749Z,50.92
2023-04-23T04:43:05.583Z,50.48
2023-04-23T04:45:35.808Z,50.18
2023-04-23T04:48:08.663Z,50.13
2023-04-23T04:50:39.059Z,50.55
2023-04-23T04:53:09.409Z,50.28
2023-04-23T04:55:47.540Z,50.14
2023-04-23T04:58:17.875Z,49.31
2023-04-23T05:00:49.295Z,49.42
2023-04-23T05:03:19.903Z,48.63
2023-04-23T05:05:51.120Z,48.04
2023-04-23T05:08:24.383Z,47.31
2023-04-23T05:10:58.224Z,47.50
2023-04-23T05:13:28.790Z,47.21
2023-04-23T05:15:59.038Z,47.43
2023-04-23T05:18:29.900Z,47.61
2023-04-23T05:21:00.327Z,48.21
2023-04-23T05:23:30.632Z,48.32
2023-04-23T05:26:05.241Z,48.09
2023-04-23T05:28:35.582Z,48.64
2023-04-23T05:31:06.294Z,48.74
2023-04-23T05:33:46.322Z,48.16
2023-04-23T05:36:20.092Z,47.06
2023-04-23T05:38:50.654Z,47.14
2023-04-23T05:41:23.644Z,47.46
2023-04-23T05:43:54.349Z,46.24
2023-04-23T05:46:24.771Z,44.12
2023-04-23T05:48:55.406Z,42.19
2023-04-23T05:51:25.728Z,40.01
2023-04-23T05:53:56.124Z,39.42
2023-04-23T05:56:29.188Z,37.53
2023-04-23T05:58:59.734Z,36.83
2023-04-23T06:01:32.185Z,35.25
2023-04-23T06:04:05.201Z,35.43
2023-04-23T06:06:36.584Z,33.82
2023-04-23T06:09:07.655Z,33.70
2023-04-23T06:11:43.966Z,32.65
2023-04-23T06:14:16.399Z,33.34
2023-04-23T06:16:46.671Z,32.44
2023-04-23T06:19:17.037Z,32.33
2023-04-23T06:21:50.517Z,31.19
2023-04-23T06:24:22.904Z,28.30
2023-04-23T06:26:58.875Z,28.12
2023-04-23T06:29:29.363Z,27.86
2023-04-23T06:32:00.095Z,27.72
2023-04-23T06:34:30.480Z,27.61
2023-04-23T06:37:03.366Z,27.36
2023-04-23T06:39:34.030Z,28.06
2023-04-23T06:42:11.251Z,26.64
2023-04-23T06:44:41.659Z,25.14
2023-04-23T06:47:12.301Z,24.84
2023-04-23T06:49:43.315Z,26.15
2023-04-23T06:52:16.148Z,26.93
2023-04-23T06:54:46.486Z,25.66
2023-04-23T06:57:22.291Z,25.48
2023-04-23T06:59:54.865Z,26.53
2023-04-23T07:02:25.343Z,27.09
2023-04-23T07:04:55.848Z,26.21
2023-04-23T07:07:26.328Z,28.15
2023-04-23T07:09:56.784Z,27.52
2023-04-23T07:12:30.033Z,25.66
2023-04-23T07:15:00.441Z,28.35
2023-04-23T07:17:32.936Z,27.51
2023-04-23T07:20:06.775Z,26.18
2023-04-23T07:22:37.990Z,27.05
2023-04-23T07:25:08.875Z,26.43
2023-04-23T07:27:42.839Z,25.96
2023-04-23T07:30:17.315Z,26.87
2023-04-23T07:32:49.957Z,26.68
2023-04-23T07:35:20.585Z,27.11
2023-04-23T07:37:54.010Z,27.07
2023-04-23T07:40:25.341Z,25.97
2023-04-23T07:42:59.677Z,27.75
2023-04-23T07:45:35.358Z,27.10
2023-04-23T07:48:05.713Z,26.75
2023-04-23T07:50:35.979Z,26.64
2023-04-23T07:53:06.735Z,26.71
2023-04-23T07:55:39.530Z,27.87
2023-04-23T07:58:12.949Z,25.88
2023-04-23T08:00:48.772Z,26.66
2023-04-23T08:03:19.368Z,26.09
2023-04-23T08:05:53.098Z,26.55
2023-04-23T08:08:23.496Z,26.76
2023-04-23T08:10:53.882Z,26.35
2023-04-23T08:13:26.841Z,26.65
2023-04-23T08:15:57.081Z,25.64
2023-04-23T08:18:30.467Z,25.77
2023-04-23T08:21:01.809Z,25.65
2023-04-23T08:23:32.173Z,25.18
2023-04-23T08:26:03.101Z,25.56
2023-04-23T08:28:38.476Z,25.85
2023-04-23T08:31:22.881Z,24.97
2023-04-23T08:33:59.597Z,24.07
2023-04-23T08:36:29.948Z,24.33
2023-04-23T08:39:00.985Z,24.16
2023-04-23T08:41:37.589Z,25.74
2023-04-23T08:44:16.380Z,25.73
2023-04-23T08:46:57.153Z,25.32
2023-04-23T08:49:32.679Z,24.29
2023-04-23T08:52:11.634Z,24.86
2023-04-23T08:54:44.917Z,24.89
2023-04-23T08:57:15.898Z,24.21
2023-04-23T08:59:51.939Z,23.90
2023-04-23T09:02:22.978Z,22.86
2023-04-23T09:04:56.440Z,23.50
2023-04-23T09:07:28.005Z,22.65
2023-04-23T09:09:58.317Z,22.20
2023-04-23T09:12:28.909Z,23.90
2023-04-23T09:15:02.983Z,24.11
2023-04-23T09:17:38.294Z,24.20
2023-04-23T09:20:11.997Z,23.60
2023-04-23T09:22:46.180Z,24.37
2023-04-23T09:25:21.650Z,24.03
2023-04-23T09:27:54.411Z,23.57
2023-04-23T09:30:27.774Z,23.28
2023-04-23T09:32:58.164Z,24.31
2023-04-23T09:35:30.980Z,24.41
2023-04-23T09:38:08.973Z,24.79
2023-04-23T09:40:42.613Z,24.22
2023-04-23T09:43:14.220Z,24.21
2023-04-23T09:45:53.945Z,23.87
2023-04-23T09:48:24.468Z,22.42
2023-04-23T09:50:58.295Z,23.93
2023-04-23T09:53:29.449Z,23.02
2023-04-23T09:56:02.065Z,22.79
2023-04-23T09:58:36.478Z,22.32
2023-04-23T10:01:15.531Z,23.09
2023-04-23T10:03:46.907Z,22.18
2023-04-23T10:06:36.994Z,21.96
2023-04-23T10:09:09.013Z,21.44
2023-04-23T10:11:45.499Z,22.11
2023-04-23T10:14:24.344Z,22.09
2023-04-23T10:17:01.036Z,21.89
2023-04-23T10:19:36.624Z,21.65
2023-04-23T10:24:56.638Z,21.01
2023-04-23T10:27:48.537Z,21.13
2023-04-23T10:30:24.195Z,20.62
2023-04-23T10:33:00.503Z,21.80
2023-04-23T10:35:31.122Z,21.46
2023-04-23T10:38:02.151Z,22.75
2023-04-23T10:40:37.101Z,21.79
2023-04-23T10:43:07.522Z,22.39
2023-04-23T10:45:37.766Z,21.23
2023-04-23T10:48:11.123Z,20.83
2023-04-23T10:50:58.557Z,21.85
2023-04-23T10:53:35.256Z,21.93
2023-04-23T10:56:09.615Z,21.39
2023-04-23T10:58:53.000Z,22.60
2023-04-23T11:01:23.765Z,20.99
2023-04-23T11:03:56.837Z,21.45
2023-04-23T11:06:55.315Z,22.20
2023-04-23T11:09:32.540Z,20.62
2023-04-23T11:12:03.783Z,20.33
2023-04-23T11:14:39.024Z,20.74
2023-04-23T11:17:09.839Z,21.07
2023-04-23T11:19:44.225Z,20.03
2023-04-23T11:22:21.867Z,20.07
2023-04-23T11:24:52.230Z,20.25
2023-04-23T11:27:22.541Z,21.35
2023-04-23T11:29:52.882Z,21.15
2023-04-23T11:32:24.913Z,19.95
2023-04-23T11:34:58.690Z,20.04
2023-04-23T11:37:28.999Z,21.02
2023-04-23T11:39:59.618Z,22.12
2023-04-23T11:42:29.938Z,20.58
2023-04-23T11:45:00.241Z,19.75
2023-04-23T11:47:30.510Z,19.40
2023-04-23T11:50:04.734Z,19.00
2023-04-23T11:52:35.661Z,18.97
2023-04-23T11:55:07.689Z,19.42
2023-04-23T11:57:39.327Z,18.29
2023-04-23T12:00:19.115Z,17.70
2023-04-23T12:03:00.018Z,18.57
2023-04-23T12:05:35.598Z,17.65
2023-04-23T12:08:13.548Z,18.58
2023-04-23T12:10:50.903Z,18.12
2023-04-23T12:13:24.100Z,18.89
2023-04-23T12:15:56.749Z,17.07
2023-04-23T12:18:31.308Z,18.95
2023-04-23T12:21:12.580Z,19.74
2023-04-23T12:23:45.497Z,17.91
2023-04-23T12:26:18.024Z,18.91
2023-04-23T12:28:54.254Z,18.60
2023-04-23T12:31:25.546Z,19.19
2023-04-23T12:34:05.400Z,19.10
2023-04-23T12:36:41.288Z,20.88
2023-04-23T12:39:35.445Z,21.34
2023-04-23T12:42:06.986Z,19.61
2023-04-23T12:44:38.658Z,19.36
2023-04-23T12:47:11.714Z,20.43
2023-04-23T12:49:45.746Z,17.62
2023-04-23T12:52:22.834Z,19.87
2023-04-23T12:54:56.752Z,19.89
2023-04-23T12:57:27.972Z,20.49
2023-04-23T12:59:58.860Z,20.91
2023-04-23T13:02:29.491Z,20.87
2023-04-23T13:05:02.742Z,19.85
2023-04-23T13:07:35.606Z,21.41
2023-04-23T13:10:06.095Z,20.95
2023-04-23T13:12:36.508Z,21.28
2023-04-23T13:15:07.440Z,20.48
2023-04-23T13:17:37.799Z,21.76
2023-04-23T13:20:09.537Z,21.31
2023-04-23T13:22:42.546Z,22.78
2023-04-23T13:25:13.352Z,22.73
2023-04-23T13:27:43.765Z,21.92
2023-04-23T13:30:15.197Z,22.65
2023-04-23T13:32:45.597Z,21.64
2023-04-23T13:35:17.282Z,21.05
2023-04-23T13:37:50.207Z,20.54
2023-04-23T13:40:20.816Z,20.82
2023-04-23T13:42:51.328Z,20.28
2023-04-23T13:45:21.607Z,20.49
2023-04-23T13:47:51.982Z,20.90
2023-04-23T13:50:22.798Z,21.12
2023-04-23T13:52:55.622Z,20.10
2023-04-23T13:55:26.059Z,19.84
2023-04-23T13:57:59.036Z,21.40
2023-04-23T14:00:31.307Z,21.72
2023-04-23T14:03:02.178Z,21.64
2023-04-23T14:05:33.554Z,21.60
2023-04-23T14:08:06.428Z,20.88
2023-04-23T14:10:37.290Z,20.42
2023-04-23T14:13:07.938Z,19.51
2023-04-23T14:15:42.963Z,20.12
2023-04-23T14:18:13.307Z,20.01
2023-04-23T14:20:43.663Z,20.35
2023-04-23T14:23:48.057Z,19.85
2023-04-23T14:29:14.176Z,20.90
2023-04-23T14:31:44.447Z,20.72
2023-04-23T14:34:14.677Z,21.71
2023-04-23T14:36:46.773Z,22.46
2023-04-23T14:39:19.653Z,22.66
2023-04-23T14:41:49.952Z,22.83
2023-04-23T14:44:22.637Z,22.91
2023-04-23T14:46:55.684Z,23.09
2023-04-23T14:49:27.198Z,23.05
2023-04-23T14:51:58.400Z,22.28
2023-04-23T14:54:31.483Z,23.04
2023-04-23T14:57:02.158Z,23.42
2023-04-23T14:59:33.316Z,22.70
2023-04-23T15:02:04.185Z,23.19
2023-04-23T15:04:35.774Z,23.74
2023-04-23T15:07:06.305Z,24.64
2023-04-23T15:09:42.396Z,24.24
2023-04-23T15:12:55.583Z,24.03
2023-04-23T15:15:42.948Z,23.74
2023-04-23T15:18:14.637Z,23.70
2023-04-23T15:20:46.590Z,23.63
2023-04-23T15:23:19.587Z,23.64
2023-04-23T15:25:52.794Z,23.55
2023-04-23T15:28:23.815Z,23.15
2023-04-23T15:30:55.277Z,24.23
2023-04-23T15:33:25.892Z,23.40
2023-04-23T15:35:58.175Z,23.22
2023-04-23T15:38:30.913Z,23.35
2023-04-23T15:41:06.212Z,24.06
2023-04-23T15:43:36.562Z,22.64
2023-04-23T15:46:09.142Z,22.90
2023-04-23T15:48:39.736Z,23.10
2023-04-23T15:51:10.735Z,23.34
2023-04-23T15:53:43.362Z,23.90
2023-04-23T15:56:16.555Z,23.79
2023-04-23T15:58:46.928Z,23.89
2023-04-23T16:01:17.474Z,23.37
2023-04-23T16:04:01.769Z,22.76
2023-04-23T16:06:37.970Z,22.60
2023-04-23T16:09:09.060Z,22.96
2023-04-23T16:11:42.113Z,23.38
2023-04-23T16:14:12.566Z,23.84
2023-04-23T16:16:45.041Z,23.90
2023-04-23T16:19:15.453Z,24.53
2023-04-23T16:21:49.087Z,24.19
2023-04-23T16:24:19.700Z,24.58
2023-04-23T16:26:53.075Z,24.62
2023-04-23T16:29:23.415Z,25.11
2023-04-23T16:31:53.939Z,25.18
2023-04-23T16:34:24.559Z,25.89
2023-04-23T16:36:56.968Z,25.85
2023-04-23T16:39:27.276Z,26.28
2023-04-23T16:42:00.180Z,26.92
2023-04-23T16:44:33.840Z,26.69
2023-04-23T16:47:04.074Z,27.28
2023-04-23T16:49:34.563Z,27.75
2023-04-23T16:52:04.958Z,27.66
2023-04-23T16:54:36.387Z,28.46
2023-04-23T16:57:09.305Z,28.88
2023-04-23T16:59:41.043Z,29.41
2023-04-23T17:02:11.520Z,29.98
2023-04-23T17:04:42.429Z,30.39
2023-04-23T17:07:13.100Z,30.63
2023-04-23T17:09:43.617Z,31.24
2023-04-23T17:12:16.817Z,31.42
2023-04-23T17:14:47.090Z,32.18
2023-04-23T17:17:17.335Z,32.32
2023-04-23T17:19:47.684Z,32.78
2023-04-23T17:22:18.140Z,33.12
2023-04-23T17:24:48.414Z,33.48
2023-04-23T17:27:21.260Z,34.20
2023-04-23T17:29:51.721Z,34.68
2023-04-23T17:32:22.100Z,34.94
2023-04-23T17:35:06.474Z,36.28
2023-04-23T17:37:39.540Z,36.79
2023-04-23T17:40:12.824Z,37.49
2023-04-23T17:42:46.071Z,38.38
2023-04-23T17:45:17.628Z,38.96
2023-04-23T17:47:48.093Z,39.15
2023-04-23T17:50:18.932Z,39.71
2023-04-23T17:52:49.229Z,40.02
2023-04-23T17:55:22.126Z,40.86
2023-04-23T17:57:55.027Z,41.02
2023-04-23T18:00:25.402Z,41.48
2023-04-23T18:02:56.291Z,41.61
2023-04-23T18:05:30.573Z,42.50
2023-04-23T18:08:01.323Z,43.44
2023-04-23T18:10:32.083Z,43.18
2023-04-23T18:13:09.398Z,43.36
2023-04-23T18:15:42.471Z,43.96
2023-04-23T18:18:12.840Z,44.30
2023-04-23T18:20:44.190Z,44.69
2023-04-23T18:23:14.991Z,45.09
2023-04-23T18:25:45.360Z,45.30
2023-04-23T18:28:19.210Z,45.19
2023-04-23T18:30:50.626Z,45.26
2023-04-23T18:33:33.688Z,45.39
2023-04-23T18:36:07.997Z,46.17
2023-04-23T18:38:45.889Z,46.26
2023-04-23T18:41:16.407Z,47.55
2023-04-23T18:43:49.421Z,47.22
2023-04-23T18:46:19.935Z,47.40
2023-04-23T18:48:55.562Z,47.39
2023-04-23T18:51:33.419Z,47.48
2023-04-23T18:54:04.633Z,47.63
2023-04-23T18:56:35.038Z,47.76
2023-04-23T18:59:07.985Z,48.07
2023-04-23T19:01:41.054Z,48.57
2023-04-23T19:04:12.728Z,48.79
2023-04-23T19:06:43.317Z,48.94
2023-04-23T19:09:16.311Z,49.29
2023-04-23T19:11:46.642Z,49.30
2023-04-23T19:14:20.308Z,49.57
2023-04-23T19:16:51.407Z,50.12
2023-04-23T19:19:21.677Z,49.86
2023-04-23T19:21:51.903Z,50.03
2023-04-23T19:24:22.204Z,49.42
2023-04-23T19:26:52.474Z,49.17
2023-04-23T19:29:25.373Z,47.47
2023-04-23T19:31:55.928Z,46.48
2023-04-23T19:34:26.435Z,46.06
2023-04-23T19:36:56.852Z,46.20
2023-04-23T19:39:30.504Z,45.91
2023-04-23T19:42:02.825Z,45.75
2023-04-23T19:44:35.819Z,45.90
2023-04-23T19:47:06.397Z,46.09
2023-04-23T19:49:36.817Z,45.67
2023-04-23T19:52:08.425Z,45.83
2023-04-23T19:54:38.765Z,45.53
2023-04-23T19:57:09.076Z,45.57
2023-04-23T19:59:42.249Z,45.71
2023-04-23T20:02:12.817Z,45.50
2023-04-23T20:04:43.326Z,45.02
2023-04-23T20:07:13.688Z,45.37
2023-04-23T20:09:44.343Z,45.58
2023-04-23T20:12:15.963Z,46.04
2023-04-23T20:14:48.905Z,45.64
2023-04-23T20:17:19.360Z,45.74
2023-04-23T20:19:49.917Z,45.63
2023-04-23T20:22:20.222Z,46.24
2023-04-23T20:24:50.460Z,46.35
2023-04-23T20:27:20.695Z,46.54
2023-04-23T20:29:54.097Z,46.24
2023-04-23T20:32:24.607Z,46.52
2023-04-23T20:34:55.308Z,46.65
2023-04-23T20:37:27.296Z,46.53
2023-04-23T20:39:58.673Z,46.77
2023-04-23T20:42:29.242Z,47.03
2023-04-23T20:45:02.079Z,46.46
2023-04-23T20:47:32.558Z,47.07
2023-04-23T20:50:03.099Z,46.99
2023-04-23T20:52:33.718Z,47.07
2023-04-23T20:55:03.983Z,47.43
2023-04-23T20:57:34.334Z,47.46
2023-04-23T21:00:12.121Z,47.61
2023-04-23T21:02:43.631Z,47.35
2023-04-23T21:05:17.244Z,47.34
2023-04-23T21:07:47.597Z,47.74
2023-04-23T21:10:17.911Z,47.58
2023-04-23T21:12:48.846Z,47.63
2023-04-23T21:15:21.820Z,48.04
2023-04-23T21:17:52.379Z,47.44
2023-04-23T21:20:22.735Z,48.01
2023-04-23T21:22:53.061Z,47.84
2023-04-23T21:25:23.418Z,47.49
2023-04-23T21:27:53.828Z,47.96
2023-04-23T21:30:36.662Z,48.32
2023-04-23T21:33:07.602Z,48.43
2023-04-23T21:35:37.798Z,48.72
2023-04-23T21:38:08.133Z,48.89
2023-04-23T21:40:40.000Z,48.65
2023-04-23T21:43:10.825Z,48.98
2023-04-23T21:45:43.693Z,49.12
2023-04-23T21:48:14.060Z,49.16
2023-04-23T21:50:44.409Z,49.36
2023-04-23T21:53:14.805Z,49.49
2023-04-23T21:55:45.030Z,49.55
2023-04-23T21:58:17.754Z,49.52
2023-04-23T22:00:51.681Z,49.93
2023-04-23T22:03:27.941Z,49.59
2023-04-23T22:06:11.634Z,49.26
2023-04-23T22:08:44.924Z,49.41
2023-04-23T22:11:17.563Z,49.23
2023-04-23T22:13:47.954Z,49.72
2023-04-23T22:16:28.784Z,50.12
2023-04-23T22:19:00.723Z,49.69
2023-04-23T22:21:31.462Z,50.30
2023-04-23T22:24:03.897Z,50.27
2023-04-23T22:26:34.236Z,50.51
2023-04-23T22:29:05.009Z,50.26
2023-04-23T22:31:38.023Z,51.08
2023-04-23T22:34:08.359Z,50.78
2023-04-23T22:36:38.702Z,51.04
2023-04-23T22:39:11.010Z,50.50
2023-04-23T22:41:41.525Z,50.63
2023-04-23T22:44:12.268Z,51.17
2023-04-23T22:46:46.001Z,50.74
2023-04-23T22:49:18.527Z,50.72
2023-04-23T22:51:49.979Z,51.15
2023-04-23T22:54:20.617Z,50.90
2023-04-23T22:56:50.896Z,51.46
2023-04-23T22:59:21.239Z,51.18
2023-04-23T23:01:54.085Z,51.33
2023-04-23T23:04:24.463Z,51.60
2023-04-23T23:06:54.683Z,51.54
2023-04-23T23:09:25.072Z,51.85
2023-04-23T23:11:55.358Z,51.53
2023-04-23T23:14:26.593Z,52.06
2023-04-23T23:16:59.671Z,52.42
2023-04-23T23:19:31.268Z,52.11
2023-04-23T23:22:02.284Z,52.28
2023-04-23T23:24:32.555Z,52.50
2023-04-23T23:27:02.865Z,52.06
2023-04-23T23:29:33.061Z,52.53
2023-04-23T23:32:06.192Z,52.92
2023-04-23T23:34:36.642Z,53.07
2023-04-23T23:37:06.970Z,53.22
2023-04-23T23:39:37.431Z,53.09
2023-04-23T23:42:08.159Z,53.33
2023-04-23T23:44:38.479Z,53.39
2023-04-23T23:47:11.726Z,53.85
2023-04-23T23:49:42.274Z,53.99
2023-04-23T23:52:12.840Z,53.48
2023-04-23T23:54:44.045Z,53.75
2023-04-23T23:57:14.322Z,54.31
2023-04-23T23:59:45.086Z,54.92
